createdAt,value
2018-12-19T00:00:50.152Z,96.01
2018-12-19T00:03:17.685Z,96.69
2018-12-19T00:05:45.332Z,96.47
2018-12-19T00:08:12.858Z,96.69
2018-12-19T00:10:40.357Z,96.98
2018-12-19T00:13:09.793Z,97.16
2018-12-19T00:15:37.317Z,96.40
2018-12-19T00:18:04.833Z,95.83
2018-12-19T00:20:32.405Z,96.09
2018-12-19T00:22:59.928Z,96.39
2018-12-19T00:25:27.457Z,95.75
2018-12-19T00:27:54.995Z,96.08
2018-12-19T00:30:22.535Z,96.92
2018-12-19T00:32:50.106Z,96.09
2018-12-19T00:35:17.655Z,96.92
2018-12-19T00:37:45.214Z,96.27
2018-12-19T00:40:12.782Z,95.92
2018-12-19T00:42:40.662Z,96.22
2018-12-19T00:45:08.331Z,95.62
2018-12-19T00:47:35.843Z,95.98
2018-12-19T00:50:03.527Z,96.42
2018-12-19T00:52:31.502Z,96.27
2018-12-19T00:54:59.057Z,96.37
2018-12-19T00:57:26.628Z,96.58
2018-12-19T00:59:54.180Z,95.82
2018-12-19T01:02:21.738Z,95.91
2018-12-19T01:04:49.261Z,95.28
2018-12-19T01:07:16.801Z,95.70
2018-12-19T01:09:44.424Z,95.68
2018-12-19T01:12:11.935Z,96.53
2018-12-19T01:14:39.861Z,96.12
2018-12-19T01:17:07.421Z,96.45
2018-12-19T01:19:34.967Z,96.39
2018-12-19T01:22:02.465Z,96.73
2018-12-19T01:24:30.085Z,96.66
2018-12-19T01:26:57.658Z,96.01
2018-12-19T01:29:25.163Z,96.52
2018-12-19T01:31:52.768Z,95.50
2018-12-19T01:34:20.346Z,96.03
2018-12-19T01:36:47.866Z,96.31
2018-12-19T01:39:15.649Z,95.73
2018-12-19T01:41:43.253Z,95.87
2018-12-19T01:44:10.878Z,95.56
2018-12-19T01:46:38.442Z,96.28
2018-12-19T01:49:05.999Z,95.29
2018-12-19T01:51:33.493Z,95.79
2018-12-19T01:54:01.041Z,96.00
2018-12-19T01:56:28.602Z,95.89
2018-12-19T01:58:56.128Z,95.61
2018-12-19T02:01:23.715Z,95.63
2018-12-19T02:03:51.217Z,95.60
2018-12-19T02:06:18.815Z,96.14
2018-12-19T02:08:46.374Z,96.17
2018-12-19T02:11:14.038Z,95.10
2018-12-19T02:13:41.965Z,95.80
2018-12-19T02:16:09.495Z,95.33
2018-12-19T02:18:37.229Z,96.14
2018-12-19T02:21:04.780Z,95.03
2018-12-19T02:23:32.388Z,95.08
2018-12-19T02:25:59.921Z,95.65
2018-12-19T02:28:27.469Z,95.15
2018-12-19T02:30:55.127Z,95.91
2018-12-19T02:33:22.633Z,95.90
2018-12-19T02:35:50.249Z,94.97
2018-12-19T02:38:17.888Z,95.32
2018-12-19T02:40:45.469Z,95.82
2018-12-19T02:43:14.274Z,95.52
2018-12-19T02:45:41.819Z,95.94
2018-12-19T02:48:09.321Z,96.07
2018-12-19T02:50:36.832Z,95.11
2018-12-19T02:53:04.398Z,94.95
2018-12-19T02:55:31.892Z,95.58
2018-12-19T02:57:59.414Z,95.65
2018-12-19T03:00:26.977Z,95.11
2018-12-19T03:02:54.540Z,95.51
2018-12-19T03:05:22.094Z,95.12
2018-12-19T03:07:49.653Z,95.97
2018-12-19T03:10:17.151Z,95.43
2018-12-19T03:12:44.673Z,95.27
2018-12-19T03:15:12.178Z,96.02
2018-12-19T03:17:39.796Z,95.98
2018-12-19T03:20:07.493Z,96.33
2018-12-19T03:22:35.115Z,95.17
2018-12-19T03:25:02.676Z,95.60
2018-12-19T03:27:30.175Z,95.17
2018-12-19T03:29:57.715Z,95.26
2018-12-19T03:32:25.257Z,96.20
2018-12-19T03:34:52.950Z,95.45
2018-12-19T03:37:20.586Z,95.30
2018-12-19T03:39:50.434Z,95.86
2018-12-19T03:42:17.754Z,95.22
2018-12-19T03:44:45.313Z,96.23
2018-12-19T03:47:13.490Z,95.24
2018-12-19T03:49:41.259Z,95.97
2018-12-19T03:52:08.810Z,96.17
2018-12-19T03:54:36.320Z,95.32
2018-12-19T03:57:05.318Z,96.11
2018-12-19T03:59:32.851Z,96.56
2018-12-19T04:02:00.413Z,96.27
2018-12-19T04:04:27.909Z,95.90
2018-12-19T04:06:55.496Z,96.73
2018-12-19T04:09:22.996Z,95.96
2018-12-19T04:11:50.619Z,96.18
2018-12-19T04:14:18.114Z,96.79
2018-12-19T04:16:45.655Z,95.78
2018-12-19T04:19:13.301Z,95.81
2018-12-19T04:21:40.861Z,96.54
2018-12-19T04:24:08.363Z,96.45
2018-12-19T04:26:35.879Z,96.03
2018-12-19T04:29:03.389Z,97.09
2018-12-19T04:31:30.897Z,96.70
2018-12-19T04:33:58.482Z,95.98
2018-12-19T04:36:26.014Z,96.73
2018-12-19T04:38:53.584Z,96.47
2018-12-19T04:41:21.137Z,95.88
2018-12-19T04:43:48.652Z,96.35
2018-12-19T04:46:16.159Z,96.53
2018-12-19T04:48:43.721Z,96.20
2018-12-19T04:51:11.274Z,96.70
2018-12-19T04:53:39.590Z,96.88
2018-12-19T04:56:07.133Z,95.80
2018-12-19T04:58:34.696Z,96.22
2018-12-19T05:01:02.341Z,96.10
2018-12-19T05:03:29.893Z,96.50
2018-12-19T05:05:57.429Z,95.55
2018-12-19T05:08:24.956Z,96.17
2018-12-19T05:10:52.574Z,95.61
2018-12-19T05:13:20.133Z,96.05
2018-12-19T05:15:47.632Z,96.31
2018-12-19T05:18:15.120Z,95.44
2018-12-19T05:20:42.646Z,95.76
2018-12-19T05:23:10.163Z,94.93
2018-12-19T05:25:37.670Z,95.17
2018-12-19T05:28:05.292Z,95.70
2018-12-19T05:30:32.989Z,95.31
2018-12-19T05:33:00.508Z,95.25
2018-12-19T05:35:28.073Z,95.21
2018-12-19T05:37:55.633Z,94.34
2018-12-19T05:40:23.148Z,95.06
2018-12-19T05:42:50.754Z,94.74
2018-12-19T05:45:18.415Z,95.02
2018-12-19T05:47:45.978Z,94.09
2018-12-19T05:50:14.635Z,95.10
2018-12-19T05:52:42.307Z,94.86
2018-12-19T05:55:10.094Z,94.20
2018-12-19T05:57:37.650Z,94.90
2018-12-19T06:00:07.280Z,94.66
2018-12-19T06:02:34.926Z,93.73
2018-12-19T06:05:02.684Z,94.18
2018-12-19T06:07:30.186Z,94.17
2018-12-19T06:09:57.853Z,94.52
2018-12-19T06:12:25.502Z,93.99
2018-12-19T06:14:53.130Z,94.17
2018-12-19T06:17:20.622Z,94.62
2018-12-19T06:19:48.254Z,94.49
2018-12-19T06:22:15.810Z,94.52
2018-12-19T06:24:43.378Z,94.41
2018-12-19T06:27:10.933Z,93.64
2018-12-19T06:29:38.437Z,94.26
2018-12-19T06:32:06.049Z,93.86
2018-12-19T06:34:33.559Z,93.87
2018-12-19T06:37:01.068Z,93.64
2018-12-19T06:39:28.802Z,93.29
2018-12-19T06:41:56.296Z,93.31
2018-12-19T06:44:23.789Z,93.33
2018-12-19T06:46:51.411Z,93.96
2018-12-19T06:49:18.974Z,93.84
2018-12-19T06:51:46.644Z,93.78
2018-12-19T06:54:14.194Z,93.56
2018-12-19T06:56:41.754Z,93.29
2018-12-19T06:59:09.245Z,93.54
2018-12-19T07:01:37.041Z,93.82
2018-12-19T07:04:04.572Z,93.61
2018-12-19T07:06:32.237Z,93.06
2018-12-19T07:08:59.807Z,92.71
2018-12-19T07:11:27.378Z,93.18
2018-12-19T07:13:54.913Z,92.65
2018-12-19T07:16:22.447Z,93.27
2018-12-19T07:18:49.944Z,93.29
2018-12-19T07:21:17.597Z,93.51
2018-12-19T07:23:45.172Z,92.22
2018-12-19T07:26:12.682Z,93.30
2018-12-19T07:28:40.249Z,92.56
2018-12-19T07:31:07.802Z,92.51
2018-12-19T07:33:35.361Z,92.86
2018-12-19T07:36:02.857Z,92.08
2018-12-19T07:38:30.407Z,91.99
2018-12-19T07:40:57.944Z,92.20
2018-12-19T07:43:25.501Z,91.73
2018-12-19T07:45:53.165Z,91.58
2018-12-19T07:48:20.902Z,91.58
2018-12-19T07:50:48.405Z,91.50
2018-12-19T07:53:15.943Z,92.15
2018-12-19T07:55:43.513Z,91.35
2018-12-19T07:58:11.034Z,91.57
2018-12-19T08:00:38.584Z,91.07
2018-12-19T08:03:06.184Z,91.94
2018-12-19T08:05:33.763Z,91.48
2018-12-19T08:08:01.267Z,91.22
2018-12-19T08:10:28.870Z,91.28
2018-12-19T08:12:56.431Z,90.84
2018-12-19T08:15:23.983Z,91.10
2018-12-19T08:17:51.477Z,91.45
2018-12-19T08:20:18.977Z,90.63
2018-12-19T08:22:46.464Z,90.45
2018-12-19T08:25:13.975Z,90.39
2018-12-19T08:27:41.586Z,90.83
2018-12-19T08:30:09.736Z,90.04
2018-12-19T08:32:37.331Z,91.04
2018-12-19T08:35:06.103Z,90.02
2018-12-19T08:37:33.775Z,90.92
2018-12-19T08:40:01.326Z,90.09
2018-12-19T08:42:28.911Z,90.80
2018-12-19T08:44:56.547Z,90.43
2018-12-19T08:47:24.252Z,90.41
2018-12-19T08:49:51.801Z,90.91
2018-12-19T08:52:19.372Z,89.72
2018-12-19T08:54:46.902Z,89.73
2018-12-19T08:57:14.490Z,89.72
2018-12-19T08:59:42.122Z,90.00
2018-12-19T09:02:09.676Z,91.03
2018-12-19T09:04:37.338Z,90.68
2018-12-19T09:07:04.868Z,89.97
2018-12-19T09:09:32.425Z,89.89
2018-12-19T09:11:59.942Z,90.84
2018-12-19T09:14:27.493Z,90.49
2018-12-19T09:16:55.000Z,89.79
2018-12-19T09:19:22.537Z,89.65
2018-12-19T09:21:50.077Z,89.58
2018-12-19T09:24:17.610Z,89.56
2018-12-19T09:26:45.114Z,89.41
2018-12-19T09:29:12.731Z,89.15
2018-12-19T09:31:42.444Z,89.52
2018-12-19T09:34:09.953Z,90.02
2018-12-19T09:36:37.571Z,88.96
2018-12-19T09:39:06.349Z,89.55
2018-12-19T09:41:34.019Z,89.18
2018-12-19T09:44:02.115Z,89.62
2018-12-19T09:46:29.680Z,89.99
2018-12-19T09:48:57.319Z,89.22
2018-12-19T09:51:24.826Z,89.53
2018-12-19T09:53:52.405Z,89.02
2018-12-19T09:56:19.925Z,89.97
2018-12-19T09:58:47.439Z,89.06
2018-12-19T10:01:14.979Z,89.53
2018-12-19T10:03:42.505Z,88.98
2018-12-19T10:06:10.050Z,89.31
2018-12-19T10:08:37.554Z,88.96
2018-12-19T10:11:05.143Z,89.02
2018-12-19T10:13:32.645Z,89.10
2018-12-19T10:16:00.262Z,89.07
2018-12-19T10:18:27.822Z,88.26
2018-12-19T10:20:55.392Z,89.05
2018-12-19T10:23:22.896Z,88.57
2018-12-19T10:25:52.387Z,88.49
2018-12-19T10:28:21.838Z,88.46
2018-12-19T10:30:49.417Z,88.22
2018-12-19T10:33:16.980Z,87.37
2018-12-19T10:35:44.534Z,87.70
2018-12-19T10:38:12.064Z,88.42
2018-12-19T10:40:39.566Z,87.89
2018-12-19T10:43:07.109Z,87.57
2018-12-19T10:45:34.610Z,87.35
2018-12-19T10:48:02.495Z,87.32
2018-12-19T10:50:30.096Z,87.35
2018-12-19T10:52:57.593Z,87.83
2018-12-19T10:55:25.216Z,87.82
2018-12-19T10:57:52.793Z,87.71
2018-12-19T11:00:25.964Z,86.97
2018-12-19T11:02:53.497Z,87.36
2018-12-19T11:05:21.001Z,86.63
2018-12-19T11:07:48.651Z,87.19
2018-12-19T11:10:16.218Z,86.70
2018-12-19T11:12:43.727Z,86.36
2018-12-19T11:15:11.224Z,86.63
2018-12-19T11:17:38.902Z,87.18
2018-12-19T11:20:08.981Z,87.07
2018-12-19T11:22:36.520Z,86.12
2018-12-19T11:25:04.999Z,86.24
2018-12-19T11:27:32.561Z,86.07
2018-12-19T11:30:00.071Z,86.07
2018-12-19T11:32:27.629Z,86.52
2018-12-19T11:34:55.193Z,86.39
2018-12-19T11:37:22.755Z,85.88
2018-12-19T11:39:50.266Z,86.25
2018-12-19T11:42:17.808Z,85.14
2018-12-19T11:44:45.330Z,86.24
2018-12-19T11:47:12.903Z,86.42
2018-12-19T11:49:40.403Z,86.74
2018-12-19T11:52:07.905Z,85.88
2018-12-19T11:54:35.466Z,86.69
2018-12-19T11:57:03.104Z,86.24
2018-12-19T11:59:30.691Z,85.91
2018-12-19T12:01:58.247Z,86.42
2018-12-19T12:04:25.821Z,85.58
2018-12-19T12:06:53.363Z,86.50
2018-12-19T12:09:20.881Z,86.20
2018-12-19T12:11:48.386Z,85.59
2018-12-19T12:14:15.920Z,85.79
2018-12-19T12:16:43.454Z,85.16
2018-12-19T12:19:10.965Z,85.65
2018-12-19T12:21:38.466Z,85.19
2018-12-19T12:24:06.091Z,85.58
2018-12-19T12:26:33.755Z,85.85
2018-12-19T12:29:01.266Z,85.02
2018-12-19T12:31:28.794Z,85.91
2018-12-19T12:33:56.292Z,85.10
2018-12-19T12:36:23.819Z,85.25
2018-12-19T12:38:51.346Z,85.73
2018-12-19T12:41:18.841Z,84.81
2018-12-19T12:43:46.332Z,85.28
2018-12-19T12:46:13.834Z,84.77
2018-12-19T12:48:41.336Z,85.59
2018-12-19T12:51:08.878Z,84.59
2018-12-19T12:53:36.515Z,85.33
2018-12-19T12:56:04.170Z,85.47
2018-12-19T12:58:31.692Z,85.66
2018-12-19T13:00:59.197Z,84.23
2018-12-19T13:03:26.741Z,84.01
2018-12-19T13:05:54.304Z,85.21
2018-12-19T13:08:21.858Z,85.08
2018-12-19T13:10:49.353Z,84.99
2018-12-19T13:13:16.870Z,84.25
2018-12-19T13:15:45.632Z,85.64
2018-12-19T13:18:14.639Z,85.27
2018-12-19T13:20:42.534Z,84.43
2018-12-19T13:23:10.058Z,84.98
2018-12-19T13:25:37.561Z,84.36
2018-12-19T13:28:05.111Z,84.13
2018-12-19T13:30:32.662Z,84.21
2018-12-19T13:33:00.222Z,84.40
2018-12-19T13:35:28.274Z,85.32
2018-12-19T13:37:55.778Z,84.50
2018-12-19T13:40:23.322Z,84.80
2018-12-19T13:42:50.872Z,84.00
2018-12-19T13:45:18.433Z,84.41
2018-12-19T13:47:46.043Z,84.75
2018-12-19T13:50:13.601Z,84.27
2018-12-19T13:52:41.216Z,84.36
2018-12-19T13:55:08.793Z,84.15
2018-12-19T13:57:36.336Z,84.83
2018-12-19T14:00:06.701Z,84.21
2018-12-19T14:02:34.189Z,84.43
2018-12-19T14:05:01.785Z,84.89
2018-12-19T14:07:29.346Z,85.17
2018-12-19T14:09:56.869Z,85.42
2018-12-19T14:12:24.383Z,85.00
2018-12-19T14:14:51.894Z,85.66
2018-12-19T14:17:19.708Z,85.49
2018-12-19T14:19:47.248Z,84.92
2018-12-19T14:22:15.319Z,85.44
2018-12-19T14:24:42.846Z,85.87
2018-12-19T14:27:10.449Z,85.65
2018-12-19T14:29:38.026Z,85.59
2018-12-19T14:32:05.585Z,86.40
2018-12-19T14:34:33.228Z,86.58
2018-12-19T14:37:00.819Z,86.53
2018-12-19T14:39:28.386Z,86.42
2018-12-19T14:41:56.003Z,86.37
2018-12-19T14:44:23.586Z,86.47
2018-12-19T14:46:51.143Z,86.83
2018-12-19T14:49:18.676Z,87.24
2018-12-19T14:51:46.271Z,87.05
2018-12-19T14:54:13.773Z,86.93
2018-12-19T14:56:41.290Z,87.04
2018-12-19T14:59:08.827Z,87.20
2018-12-19T15:01:36.362Z,87.45
2018-12-19T15:04:03.914Z,86.83
2018-12-19T15:06:31.415Z,86.99
2018-12-19T15:08:58.973Z,87.34
2018-12-19T15:11:27.084Z,87.02
2018-12-19T15:13:54.731Z,86.72
2018-12-19T15:16:23.041Z,86.72
2018-12-19T15:18:50.617Z,86.80
2018-12-19T15:21:18.703Z,87.11
2018-12-19T15:23:46.266Z,87.33
2018-12-19T15:26:13.759Z,87.33
2018-12-19T15:28:41.385Z,87.42
2018-12-19T15:31:08.922Z,87.44
2018-12-19T15:33:36.444Z,87.16
2018-12-19T15:36:04.191Z,87.21
2018-12-19T15:38:31.826Z,87.57
2018-12-19T15:40:59.385Z,87.63
2018-12-19T15:43:26.981Z,87.37
2018-12-19T15:45:54.489Z,87.08
2018-12-19T15:48:21.990Z,86.80
2018-12-19T15:50:49.493Z,87.27
2018-12-19T15:53:17.116Z,87.50
2018-12-19T15:55:44.633Z,87.01
2018-12-19T15:58:12.136Z,86.89
2018-12-19T16:00:39.733Z,86.54
2018-12-19T16:03:07.338Z,87.19
2018-12-19T16:05:34.888Z,87.12
2018-12-19T16:08:02.454Z,86.44
2018-12-19T16:10:29.974Z,86.87
2018-12-19T16:12:57.580Z,87.04
2018-12-19T16:15:25.092Z,86.64
2018-12-19T16:17:52.625Z,86.81
2018-12-19T16:20:20.250Z,87.36
2018-12-19T16:22:47.882Z,87.09
2018-12-19T16:25:15.921Z,86.47
2018-12-19T16:27:44.085Z,87.24
2018-12-19T16:30:11.654Z,86.68
2018-12-19T16:32:39.174Z,87.06
2018-12-19T16:35:06.776Z,86.87
2018-12-19T16:37:34.413Z,86.59
2018-12-19T16:40:01.960Z,86.57
2018-12-19T16:42:29.515Z,86.90
2018-12-19T16:44:57.119Z,86.47
2018-12-19T16:47:24.637Z,87.06
2018-12-19T16:49:52.231Z,86.34
2018-12-19T16:52:19.721Z,87.08
2018-12-19T16:54:47.289Z,87.15
2018-12-19T16:57:14.801Z,86.87
2018-12-19T16:59:42.408Z,87.07
2018-12-19T17:02:09.948Z,87.08
2018-12-19T17:04:37.561Z,86.32
2018-12-19T17:07:05.115Z,86.40
2018-12-19T17:09:32.637Z,86.95
2018-12-19T17:12:00.261Z,87.09
2018-12-19T17:14:27.807Z,87.02
2018-12-19T17:16:55.362Z,87.29
2018-12-19T17:19:22.871Z,86.63
2018-12-19T17:21:50.375Z,86.66
2018-12-19T17:24:17.932Z,87.11
2018-12-19T17:26:45.802Z,87.26
2018-12-19T17:29:13.316Z,86.72
2018-12-19T17:31:40.831Z,86.81
2018-12-19T17:34:08.328Z,87.01
2018-12-19T17:36:36.041Z,86.87
2018-12-19T17:39:05.561Z,86.74
2018-12-19T17:41:33.111Z,87.10
2018-12-19T17:44:00.621Z,86.89
2018-12-19T17:46:28.334Z,86.94
2018-12-19T17:48:55.846Z,87.79
2018-12-19T17:51:23.357Z,87.77
2018-12-19T17:53:50.875Z,87.34
2018-12-19T17:56:18.388Z,87.82
2018-12-19T17:58:45.933Z,87.30
2018-12-19T18:01:13.495Z,87.60
2018-12-19T18:03:41.044Z,87.67
2018-12-19T18:06:08.553Z,87.83
2018-12-19T18:08:36.059Z,88.06
2018-12-19T18:11:03.594Z,87.96
2018-12-19T18:13:31.186Z,88.12
2018-12-19T18:15:58.847Z,87.43
2018-12-19T18:18:26.424Z,87.95
2018-12-19T18:20:53.992Z,88.07
2018-12-19T18:23:21.638Z,88.08
2018-12-19T18:25:49.192Z,88.01
2018-12-19T18:28:16.780Z,88.43
2018-12-19T18:30:44.377Z,88.49
2018-12-19T18:33:11.903Z,87.67
2018-12-19T18:35:39.503Z,88.10
2018-12-19T18:38:07.004Z,87.99
2018-12-19T18:40:34.520Z,87.80
2018-12-19T18:43:02.114Z,88.18
2018-12-19T18:45:29.829Z,88.04
2018-12-19T18:47:57.436Z,88.59
2018-12-19T18:50:24.992Z,88.22
2018-12-19T18:52:53.062Z,88.80
2018-12-19T18:55:20.580Z,88.03
2018-12-19T18:57:48.280Z,88.36
2018-12-19T19:00:17.874Z,88.12
2018-12-19T19:02:45.435Z,88.05
2018-12-19T19:05:13.176Z,87.97
2018-12-19T19:07:40.799Z,88.60
2018-12-19T19:10:08.574Z,88.39
2018-12-19T19:12:36.106Z,88.97
2018-12-19T19:15:07.337Z,88.12
2018-12-19T19:17:34.850Z,88.74
2018-12-19T19:20:02.471Z,88.90
2018-12-19T19:22:30.047Z,88.26
2018-12-19T19:24:57.550Z,88.17
2018-12-19T19:27:25.123Z,88.36
2018-12-19T19:29:52.655Z,88.98
2018-12-19T19:32:20.170Z,88.59
2018-12-19T19:34:47.673Z,88.92
2018-12-19T19:37:15.190Z,88.40
2018-12-19T19:39:42.755Z,88.35
2018-12-19T19:42:10.445Z,88.05
2018-12-19T19:44:38.004Z,88.66
2018-12-19T19:47:05.656Z,88.08
2018-12-19T19:49:33.271Z,88.64
2018-12-19T19:52:00.791Z,88.75
2018-12-19T19:54:28.955Z,88.08
2018-12-19T19:56:56.485Z,88.70
2018-12-19T19:59:24.480Z,87.92
2018-12-19T20:01:52.028Z,88.53
2018-12-19T20:04:19.579Z,88.18
2018-12-19T20:06:47.143Z,88.32
2018-12-19T20:09:14.641Z,88.71
2018-12-19T20:11:42.326Z,88.24
2018-12-19T20:14:09.841Z,87.71
2018-12-19T20:19:33.710Z,88.69
2018-12-19T20:22:01.272Z,88.25
2018-12-19T20:24:28.773Z,88.47
2018-12-19T20:26:56.336Z,87.88
2018-12-19T20:29:23.850Z,88.53
2018-12-19T20:31:51.384Z,88.43
2018-12-19T20:34:18.944Z,88.25
2018-12-19T20:36:46.445Z,88.23
2018-12-19T20:39:13.970Z,88.27
2018-12-19T20:41:41.522Z,87.71
2018-12-19T20:44:09.110Z,87.63
2018-12-19T20:46:36.694Z,88.21
2018-12-19T20:49:04.343Z,87.78
2018-12-19T20:51:31.898Z,87.50
2018-12-19T20:53:59.481Z,87.87
2018-12-19T20:56:27.108Z,87.43
2018-12-19T20:58:54.779Z,87.53
2018-12-19T21:01:22.432Z,87.15
2018-12-19T21:03:50.097Z,87.04
2018-12-19T21:06:17.662Z,87.47
2018-12-19T21:08:45.176Z,86.88
2018-12-19T21:11:12.694Z,87.60
2018-12-19T21:13:46.537Z,86.66
2018-12-19T21:16:10.560Z,87.00
2018-12-19T21:18:43.053Z,86.66
2018-12-19T21:21:10.574Z,86.45
2018-12-19T21:23:38.124Z,86.45
2018-12-19T21:26:05.816Z,86.62
2018-12-19T21:28:33.415Z,86.62
2018-12-19T21:31:01.041Z,86.49
2018-12-19T21:33:28.617Z,86.40
2018-12-19T21:35:56.184Z,86.79
2018-12-19T21:38:23.742Z,86.55
2018-12-19T21:40:51.245Z,86.75
2018-12-19T21:43:18.842Z,86.48
2018-12-19T21:45:51.690Z,86.90
2018-12-19T21:48:15.988Z,86.56
2018-12-19T21:50:43.612Z,86.22
2018-12-19T21:53:11.150Z,86.43
2018-12-19T21:55:38.693Z,86.95
2018-12-19T21:58:06.191Z,86.74
2018-12-19T22:00:35.526Z,86.93
2018-12-19T22:03:05.001Z,86.47
2018-12-19T22:05:32.652Z,86.65
2018-12-19T22:08:00.396Z,86.13
2018-12-19T22:10:27.953Z,86.07
2018-12-19T22:12:55.721Z,86.65
2018-12-19T22:15:23.325Z,85.95
2018-12-19T22:17:52.877Z,85.81
2018-12-19T22:20:20.405Z,86.05
2018-12-19T22:22:47.963Z,86.59
2018-12-19T22:25:15.556Z,86.19
2018-12-19T22:27:43.120Z,85.96
2018-12-19T22:30:10.719Z,86.57
2018-12-19T22:32:38.308Z,86.29
2018-12-19T22:35:05.855Z,85.56
2018-12-19T22:37:33.396Z,85.83
2018-12-19T22:40:00.989Z,85.94
2018-12-19T22:42:28.494Z,86.12
2018-12-19T22:44:55.993Z,86.27
2018-12-19T22:47:23.594Z,86.25
2018-12-19T22:49:51.184Z,86.37
2018-12-19T22:52:19.225Z,86.00
2018-12-19T22:54:46.886Z,86.18
2018-12-19T22:57:14.445Z,86.22
2018-12-19T22:59:42.005Z,86.50
2018-12-19T23:02:15.062Z,85.96
2018-12-19T23:04:42.720Z,85.73
2018-12-19T23:07:10.389Z,85.54
2018-12-19T23:09:37.893Z,86.14
2018-12-19T23:12:05.506Z,86.24
2018-12-19T23:14:33.130Z,86.41
2018-12-19T23:17:02.723Z,85.83
2018-12-19T23:19:30.244Z,85.70
2018-12-19T23:21:57.835Z,86.37
2018-12-19T23:24:25.395Z,85.47
2018-12-19T23:26:52.922Z,85.84
2018-12-19T23:29:20.534Z,86.44
2018-12-19T23:31:48.114Z,86.14
2018-12-19T23:34:15.752Z,85.82
2018-12-19T23:36:43.343Z,85.76
2018-12-19T23:39:10.848Z,85.91
2018-12-19T23:41:38.351Z,85.85
2018-12-19T23:44:06.411Z,85.98
2018-12-19T23:46:34.560Z,86.54
2018-12-19T23:49:02.130Z,86.02
2018-12-19T23:51:29.979Z,86.06
2018-12-19T23:53:57.776Z,85.82
2018-12-19T23:56:25.386Z,87.15
2018-12-19T23:58:53.123Z,86.65
